createdAt,value
2019-04-06T00:00:59.291Z,10.67
2019-04-06T00:03:28.025Z,11.10
2019-04-06T00:05:57.269Z,11.47
2019-04-06T00:08:27.098Z,10.50
2019-04-06T00:10:57.704Z,11.40
2019-04-06T00:13:27.012Z,11.80
2019-04-06T00:15:55.825Z,11.50
2019-04-06T00:18:25.269Z,10.37
2019-04-06T00:20:54.475Z,12.07
2019-04-06T00:23:23.404Z,11.30
2019-04-06T00:25:53.918Z,11.50
2019-04-06T00:28:23.582Z,11.57
2019-04-06T00:31:09.005Z,11.60
2019-04-06T00:33:39.753Z,11.73
2019-04-06T00:36:09.315Z,11.40
2019-04-06T00:38:38.589Z,12.13
2019-04-06T00:41:09.944Z,11.33
2019-04-06T00:43:38.821Z,10.13
2019-04-06T00:46:12.974Z,11.40
2019-04-06T00:48:42.249Z,10.87
2019-04-06T00:51:11.086Z,10.33
2019-04-06T00:53:39.980Z,10.87
2019-04-06T00:56:08.615Z,10.70
2019-04-06T00:58:37.242Z,11.47
2019-04-06T01:01:07.229Z,10.50
2019-04-06T01:03:39.087Z,11.43
2019-04-06T01:06:09.029Z,11.10
2019-04-06T01:08:38.737Z,11.43
2019-04-06T01:11:07.755Z,11.57
2019-04-06T01:13:38.163Z,10.37
2019-04-06T01:16:07.097Z,10.93
2019-04-06T01:18:35.772Z,11.30
2019-04-06T01:21:06.583Z,10.67
2019-04-06T01:23:36.537Z,10.50
2019-04-06T01:26:07.909Z,11.03
2019-04-06T01:28:36.957Z,10.80
2019-04-06T01:31:06.223Z,10.40
2019-04-06T01:33:39.548Z,10.20
2019-04-06T01:36:30.565Z,10.17
2019-04-06T01:38:39.272Z,10.63
2019-04-06T01:41:08.710Z,12.17
2019-04-06T01:43:37.747Z,10.47
2019-04-06T01:46:07.951Z,10.17
2019-04-06T01:48:40.249Z,10.67
2019-04-06T01:51:13.237Z,10.40
2019-04-06T01:53:45.075Z,11.30
2019-04-06T01:56:18.717Z,11.13
2019-04-06T01:58:47.538Z,10.90
2019-04-06T02:01:20.534Z,10.53
2019-04-06T02:03:49.362Z,9.97
2019-04-06T02:06:18.817Z,10.57
2019-04-06T02:08:47.768Z,10.63
2019-04-06T02:11:18.059Z,11.07
2019-04-06T02:13:47.447Z,9.90
2019-04-06T02:16:16.283Z,11.33
2019-04-06T02:18:50.523Z,10.67
2019-04-06T02:21:19.318Z,10.73
2019-04-06T02:23:48.157Z,10.07
2019-04-06T02:26:17.551Z,10.30
2019-04-06T02:28:48.711Z,9.90
2019-04-06T02:31:25.264Z,10.67
2019-04-06T02:34:10.587Z,10.93
2019-04-06T02:37:00.475Z,9.93
2019-04-06T02:39:47.318Z,10.63
2019-04-06T02:42:21.979Z,10.80
2019-04-06T02:44:52.139Z,10.00
2019-04-06T02:47:20.925Z,10.23
2019-04-06T02:49:52.328Z,9.50
2019-04-06T02:52:24.831Z,11.13
2019-04-06T02:54:55.159Z,10.93
2019-04-06T02:57:25.580Z,10.00
2019-04-06T02:59:55.897Z,10.33
2019-04-06T03:02:25.181Z,11.13
2019-04-06T03:04:54.624Z,9.93
2019-04-06T03:07:24.986Z,10.33
2019-04-06T03:09:58.491Z,10.30
2019-04-06T03:12:32.195Z,10.77
2019-04-06T03:14:59.100Z,10.73
2019-04-06T03:17:29.581Z,10.77
2019-04-06T03:19:58.470Z,10.93
2019-04-06T03:22:28.641Z,10.63
2019-04-06T03:25:00.403Z,11.10
2019-04-06T03:27:29.171Z,10.70
2019-04-06T03:29:59.160Z,10.33
2019-04-06T03:32:28.349Z,10.00
2019-04-06T03:34:57.204Z,10.43
2019-04-06T03:37:26.152Z,11.23
2019-04-06T03:39:54.939Z,10.93
2019-04-06T03:42:23.645Z,11.07
2019-04-06T03:44:52.956Z,11.90
2019-04-06T03:47:21.896Z,11.13
2019-04-06T03:49:51.713Z,11.67
2019-04-06T03:52:25.134Z,11.57
2019-04-06T03:54:51.120Z,11.33
2019-04-06T03:57:19.865Z,10.97
2019-04-06T03:59:48.668Z,11.70
2019-04-06T04:02:17.576Z,11.07
2019-04-06T04:04:47.100Z,11.47
2019-04-06T04:07:17.375Z,11.23
2019-04-06T04:09:46.580Z,12.20
2019-04-06T04:12:15.374Z,11.60
2019-04-06T04:14:47.437Z,11.00
2019-04-06T04:17:17.697Z,11.30
2019-04-06T04:19:46.528Z,11.50
2019-04-06T04:22:15.206Z,11.47
2019-04-06T04:24:45.111Z,10.80
2019-04-06T04:27:27.348Z,11.83
2019-04-06T04:29:46.459Z,11.00
2019-04-06T04:32:15.208Z,11.10
2019-04-06T04:34:44.227Z,11.47
2019-04-06T04:37:13.021Z,11.57
2019-04-06T04:39:41.988Z,11.33
2019-04-06T04:42:12.205Z,12.20
2019-04-06T04:44:41.089Z,11.63
2019-04-06T04:47:09.814Z,11.87
2019-04-06T04:49:38.559Z,11.70
2019-04-06T04:52:08.406Z,10.87
2019-04-06T04:54:38.602Z,12.13
2019-04-06T04:57:08.137Z,11.13
2019-04-06T04:59:38.645Z,10.83
2019-04-06T05:02:07.433Z,11.77
2019-04-06T05:04:36.141Z,11.77
2019-04-06T05:07:05.692Z,12.03
2019-04-06T05:09:34.645Z,12.63
2019-04-06T05:12:03.435Z,11.77
2019-04-06T05:15:00.694Z,11.73
2019-04-06T05:17:29.836Z,11.23
2019-04-06T05:19:58.447Z,11.87
2019-04-06T05:22:27.584Z,11.30
2019-04-06T05:24:57.749Z,11.30
2019-04-06T05:27:28.057Z,11.93
2019-04-06T05:30:01.599Z,11.77
2019-04-06T05:32:30.413Z,10.67
2019-04-06T05:34:59.163Z,11.70
2019-04-06T05:40:17.416Z,11.60
2019-04-06T05:42:47.982Z,11.87
2019-04-06T05:45:18.149Z,11.07
2019-04-06T05:47:49.215Z,12.73
2019-04-06T05:50:21.576Z,11.90
2019-04-06T05:52:50.435Z,12.23
2019-04-06T05:55:19.325Z,12.23
2019-04-06T05:57:48.131Z,11.80
2019-04-06T06:00:18.553Z,11.87
2019-04-06T06:02:47.305Z,11.83
2019-04-06T06:05:21.906Z,11.60
2019-04-06T06:07:50.694Z,11.63
2019-04-06T06:10:20.288Z,10.77
2019-04-06T06:12:49.180Z,10.63
2019-04-06T06:15:18.020Z,10.13
2019-04-06T06:17:49.131Z,10.67
2019-04-06T06:20:19.204Z,10.10
2019-04-06T06:22:47.943Z,10.40
2019-04-06T06:25:20.409Z,10.70
2019-04-06T06:27:52.192Z,10.63
2019-04-06T06:30:21.262Z,10.37
2019-04-06T06:32:50.725Z,10.70
2019-04-06T06:35:19.964Z,10.10
2019-04-06T06:37:53.379Z,10.80
2019-04-06T06:40:26.702Z,10.10
2019-04-06T06:42:58.318Z,10.97
2019-04-06T06:45:33.448Z,10.17
2019-04-06T06:48:02.360Z,10.13
2019-04-06T06:50:34.762Z,10.63
2019-04-06T06:53:05.138Z,9.80
2019-04-06T06:55:35.850Z,9.90
2019-04-06T06:58:09.073Z,9.73
2019-04-06T07:00:43.279Z,10.23
2019-04-06T07:03:14.989Z,9.80
2019-04-06T07:05:46.628Z,10.33
2019-04-06T07:08:15.320Z,9.70
2019-04-06T07:10:45.912Z,10.73
2019-04-06T07:13:14.604Z,9.87
2019-04-06T07:15:44.775Z,10.43
2019-04-06T07:18:15.418Z,9.70
2019-04-06T07:20:45.483Z,9.47
2019-04-06T07:23:15.719Z,10.43
2019-04-06T07:25:56.834Z,9.13
2019-04-06T07:28:18.483Z,9.80
2019-04-06T07:30:49.184Z,9.13
2019-04-06T07:33:20.063Z,9.93
2019-04-06T07:35:51.692Z,9.50
2019-04-06T07:38:21.957Z,9.70
2019-04-06T07:40:55.373Z,9.17
2019-04-06T07:43:31.791Z,10.57
2019-04-06T07:46:03.132Z,9.67
2019-04-06T07:48:32.601Z,10.00
2019-04-06T07:51:04.867Z,10.17
2019-04-06T07:53:41.540Z,9.73
2019-04-06T07:56:24.104Z,10.07
2019-04-06T07:59:02.736Z,9.73
2019-04-06T08:01:37.111Z,9.37
2019-04-06T08:04:26.127Z,10.03
2019-04-06T08:06:58.818Z,9.53
2019-04-06T08:09:27.897Z,9.57
2019-04-06T08:11:59.060Z,9.47
2019-04-06T08:14:29.195Z,8.97
2019-04-06T08:17:00.911Z,9.23
2019-04-06T08:19:31.355Z,9.03
2019-04-06T08:22:02.695Z,8.77
2019-04-06T08:24:33.768Z,8.33
2019-04-06T08:27:06.008Z,8.13
2019-04-06T08:29:36.082Z,9.03
2019-04-06T08:32:08.025Z,8.40
2019-04-06T08:34:42.418Z,7.37
2019-04-06T08:37:12.175Z,6.67
2019-04-06T08:39:52.093Z,7.80
2019-04-06T08:42:24.037Z,7.13
2019-04-06T08:44:54.679Z,6.83
2019-04-06T08:47:24.746Z,7.83
2019-04-06T08:49:55.081Z,6.93
2019-04-06T08:52:26.805Z,7.23
2019-04-06T08:54:55.596Z,7.43
2019-04-06T08:57:24.638Z,7.30
2019-04-06T08:59:55.872Z,6.70
2019-04-06T09:02:30.768Z,7.27
2019-04-06T09:05:01.171Z,7.20
2019-04-06T09:07:31.548Z,7.10
2019-04-06T09:10:04.699Z,7.07
2019-04-06T09:12:39.803Z,7.20
2019-04-06T09:15:17.908Z,7.63
2019-04-06T09:17:51.814Z,6.50
2019-04-06T09:20:22.086Z,6.93
2019-04-06T09:22:54.128Z,6.93
2019-04-06T09:25:28.440Z,7.43
2019-04-06T09:27:57.168Z,7.27
2019-04-06T09:30:27.422Z,7.47
2019-04-06T09:32:56.092Z,7.17
2019-04-06T09:35:26.966Z,6.33
2019-04-06T09:37:55.782Z,7.07
2019-04-06T09:40:30.289Z,6.07
2019-04-06T09:42:59.951Z,6.80
2019-04-06T09:45:42.308Z,6.57
2019-04-06T09:48:19.437Z,7.23
2019-04-06T09:51:05.746Z,7.13
2019-04-06T09:53:51.024Z,6.97
2019-04-06T09:56:39.372Z,6.80
2019-04-06T09:59:20.561Z,6.50
2019-04-06T10:01:50.824Z,6.93
2019-04-06T10:04:24.328Z,6.87
2019-04-06T10:07:19.329Z,7.10
2019-04-06T10:10:10.033Z,7.13
2019-04-06T10:12:41.424Z,6.90
2019-04-06T10:15:15.787Z,6.93
2019-04-06T10:18:07.627Z,6.47
2019-04-06T10:20:48.410Z,7.30
2019-04-06T10:23:45.736Z,7.13
2019-04-06T10:26:19.130Z,6.77
2019-04-06T10:29:05.169Z,6.07
2019-04-06T10:31:53.270Z,6.87
2019-04-06T10:34:27.773Z,6.97
2019-04-06T10:37:14.494Z,6.93
2019-04-06T10:39:53.549Z,6.20
2019-04-06T10:42:30.525Z,6.80
2019-04-06T10:45:04.994Z,6.43
2019-04-06T10:47:39.786Z,6.80
2019-04-06T10:50:16.311Z,6.60
2019-04-06T10:53:01.488Z,7.07
2019-04-06T10:55:35.366Z,7.67
2019-04-06T10:58:12.672Z,6.43
2019-04-06T11:00:42.998Z,7.23
2019-04-06T11:03:18.863Z,7.00
2019-04-06T11:05:55.606Z,7.07
2019-04-06T11:08:43.419Z,6.73
2019-04-06T11:11:20.128Z,7.27
2019-04-06T11:13:56.333Z,7.47
2019-04-06T11:16:31.903Z,7.10
2019-04-06T11:19:19.488Z,8.07
2019-04-06T11:21:54.402Z,7.40
2019-04-06T11:24:47.459Z,7.20
2019-04-06T11:27:22.920Z,6.60
2019-04-06T11:30:14.717Z,6.60
2019-04-06T11:33:01.099Z,7.43
2019-04-06T11:35:49.628Z,7.90
2019-04-06T11:38:35.822Z,6.37
2019-04-06T11:44:14.436Z,7.83
2019-04-06T11:46:47.338Z,6.63
2019-04-06T11:49:20.147Z,7.23
2019-04-06T11:51:57.863Z,7.30
2019-04-06T11:54:34.903Z,7.60
2019-04-06T11:57:11.010Z,6.93
2019-04-06T11:59:59.649Z,7.57
2019-04-06T12:02:43.111Z,7.03
2019-04-06T12:05:30.455Z,6.20
2019-04-06T12:08:02.573Z,6.97
2019-04-06T12:10:54.195Z,7.17
2019-04-06T12:13:32.836Z,6.97
2019-04-06T12:16:04.510Z,6.73
2019-04-06T12:18:54.691Z,6.77
2019-04-06T12:21:31.950Z,6.40
2019-04-06T12:24:07.228Z,7.07
2019-04-06T12:26:55.355Z,6.90
2019-04-06T12:29:26.888Z,7.13
2019-04-06T12:32:02.547Z,6.83
2019-04-06T12:34:36.114Z,7.20
2019-04-06T12:37:26.121Z,6.90
2019-04-06T12:40:11.035Z,6.07
2019-04-06T12:42:41.512Z,6.23
2019-04-06T12:45:16.692Z,6.90
2019-04-06T12:47:52.665Z,7.00
2019-04-06T12:50:42.011Z,6.40
2019-04-06T12:53:14.276Z,7.37
2019-04-06T12:55:51.923Z,7.30
2019-04-06T12:58:45.264Z,7.00
2019-04-06T13:01:34.300Z,8.00
2019-04-06T13:04:28.415Z,7.47
2019-04-06T13:07:22.058Z,7.13
2019-04-06T13:10:10.653Z,7.10
2019-04-06T13:12:50.949Z,6.60
2019-04-06T13:15:35.403Z,7.17
2019-04-06T13:18:19.510Z,6.93
2019-04-06T13:20:53.183Z,7.40
2019-04-06T13:23:35.562Z,7.10
2019-04-06T13:26:25.198Z,8.70
2019-04-06T13:29:09.675Z,10.97
2019-04-06T13:31:49.996Z,7.03
2019-04-06T13:34:26.440Z,7.30
2019-04-06T13:36:59.814Z,7.00
2019-04-06T13:39:47.414Z,7.27
2019-04-06T13:42:27.285Z,8.07
2019-04-06T13:45:17.028Z,7.03
2019-04-06T13:47:51.855Z,7.30
2019-04-06T13:50:25.276Z,8.60
2019-04-06T13:53:04.870Z,7.30
2019-04-06T13:55:40.986Z,7.17
2019-04-06T13:58:25.595Z,8.10
2019-04-06T14:01:16.231Z,8.30
2019-04-06T14:04:03.730Z,7.00
2019-04-06T14:07:00.821Z,8.33
2019-04-06T14:09:37.655Z,7.37
2019-04-06T14:12:17.772Z,7.43
2019-04-06T14:14:58.780Z,8.60
2019-04-06T14:17:51.338Z,7.70
2019-04-06T14:20:26.463Z,7.60
2019-04-06T14:23:17.241Z,7.43
2019-04-06T14:25:59.995Z,8.50
2019-04-06T14:28:40.469Z,6.97
2019-04-06T14:31:27.953Z,7.40
2019-04-06T14:33:53.197Z,8.07
2019-04-06T14:36:24.636Z,7.13
2019-04-06T14:39:07.456Z,7.80
2019-04-06T14:41:40.711Z,8.17
2019-04-06T14:44:20.020Z,8.30
2019-04-06T14:46:53.895Z,8.77
2019-04-06T14:49:43.649Z,8.40
2019-04-06T14:52:31.752Z,8.80
2019-04-06T14:55:02.481Z,7.73
2019-04-06T14:57:34.952Z,8.10
2019-04-06T15:00:25.766Z,8.40
2019-04-06T15:03:12.717Z,8.23
2019-04-06T15:05:45.386Z,8.10
2019-04-06T15:08:26.928Z,8.47
2019-04-06T15:11:08.732Z,8.03
2019-04-06T15:13:45.198Z,9.57
2019-04-06T15:16:18.341Z,8.33
2019-04-06T15:18:55.622Z,8.67
2019-04-06T15:21:33.311Z,8.80
2019-04-06T15:24:06.255Z,8.53
2019-04-06T15:26:43.132Z,8.83
2019-04-06T15:29:40.161Z,8.63
2019-04-06T15:32:25.739Z,9.57
2019-04-06T15:37:56.788Z,9.23
2019-04-06T15:40:44.534Z,9.00
2019-04-06T15:43:33.913Z,8.73
2019-04-06T15:46:26.127Z,8.63
2019-04-06T15:49:12.796Z,7.73
2019-04-06T15:52:11.023Z,7.77
2019-04-06T15:54:38.093Z,8.50
2019-04-06T15:57:37.333Z,8.67
2019-04-06T16:00:10.651Z,8.77
2019-04-06T16:03:01.381Z,7.97
2019-04-06T16:05:36.368Z,7.97
2019-04-06T16:08:12.431Z,8.20
2019-04-06T16:10:54.358Z,8.23
2019-04-06T16:13:24.608Z,8.27
2019-04-06T16:16:01.590Z,8.87
2019-04-06T16:18:46.219Z,8.70
2019-04-06T16:21:35.357Z,9.70
2019-04-06T16:24:13.733Z,8.73
2019-04-06T16:27:00.135Z,7.63
2019-04-06T16:29:31.170Z,8.43
2019-04-06T16:32:11.538Z,7.93
2019-04-06T16:34:44.600Z,7.67
2019-04-06T16:37:28.639Z,9.37
2019-04-06T16:40:03.864Z,11.60
2019-04-06T16:42:45.233Z,11.13
2019-04-06T16:45:26.402Z,9.93
2019-04-06T16:48:04.981Z,9.00
2019-04-06T16:50:37.609Z,7.50
2019-04-06T16:53:09.575Z,9.77
2019-04-06T16:55:42.758Z,8.27
2019-04-06T16:58:15.844Z,9.97
2019-04-06T17:00:56.572Z,9.47
2019-04-06T17:03:35.640Z,8.93
2019-04-06T17:06:12.036Z,9.00
2019-04-06T17:08:59.957Z,8.87
2019-04-06T17:11:33.923Z,9.57
2019-04-06T17:14:16.278Z,9.03
2019-04-06T17:17:06.222Z,10.10
2019-04-06T17:19:55.415Z,9.93
2019-04-06T17:22:33.586Z,10.60
2019-04-06T17:25:14.687Z,10.60
2019-04-06T17:28:04.315Z,11.40
2019-04-06T17:30:38.258Z,11.87
2019-04-06T17:33:27.268Z,11.20
2019-04-06T17:36:17.974Z,9.87
2019-04-06T17:38:53.393Z,10.13
2019-04-06T17:41:27.033Z,11.97
2019-04-06T17:44:02.377Z,12.90
2019-04-06T17:46:54.801Z,13.90
2019-04-06T17:49:42.810Z,13.20
2019-04-06T17:52:30.656Z,12.07
2019-04-06T17:55:19.187Z,11.00
2019-04-06T17:57:54.905Z,11.00
2019-04-06T18:00:32.982Z,12.30
2019-04-06T18:03:25.226Z,12.60
2019-04-06T18:06:05.850Z,12.43
2019-04-06T18:08:48.504Z,12.60
2019-04-06T18:11:29.538Z,13.97
2019-04-06T18:14:03.050Z,14.30
2019-04-06T18:16:35.312Z,13.17
2019-04-06T18:19:07.342Z,13.60
2019-04-06T18:21:51.716Z,13.57
2019-04-06T18:24:22.813Z,15.63
2019-04-06T18:27:01.698Z,14.10
2019-04-06T18:29:30.931Z,15.93
2019-04-06T18:32:03.964Z,14.30
2019-04-06T18:34:36.572Z,15.37
2019-04-06T18:37:24.608Z,13.10
2019-04-06T18:39:54.824Z,14.27
2019-04-06T18:42:26.523Z,12.07
2019-04-06T18:44:59.905Z,11.93
2019-04-06T18:47:32.430Z,13.47
2019-04-06T18:50:02.715Z,12.60
2019-04-06T18:52:38.425Z,13.03
2019-04-06T18:55:14.873Z,13.07
2019-04-06T18:58:08.652Z,13.63
2019-04-06T19:00:31.122Z,13.17
2019-04-06T19:03:15.099Z,12.70
2019-04-06T19:05:43.346Z,13.07
2019-04-06T19:08:15.742Z,13.13
2019-04-06T19:10:48.649Z,14.63
2019-04-06T19:13:23.291Z,13.83
2019-04-06T19:15:58.405Z,14.30
2019-04-06T19:18:28.705Z,13.30
2019-04-06T19:21:03.982Z,14.27
2019-04-06T19:23:41.159Z,14.10
2019-04-06T19:26:15.054Z,15.10
2019-04-06T19:28:49.339Z,13.57
2019-04-06T19:34:14.007Z,12.90
2019-04-06T19:36:43.197Z,12.80
2019-04-06T19:39:20.063Z,13.80
2019-04-06T19:41:51.114Z,13.87
2019-04-06T19:44:24.919Z,14.27
2019-04-06T19:47:00.930Z,13.40
2019-04-06T19:49:42.482Z,13.03
2019-04-06T19:52:19.863Z,13.80
2019-04-06T19:54:55.750Z,14.70
2019-04-06T19:57:30.581Z,13.53
2019-04-06T20:00:06.785Z,14.20
2019-04-06T20:02:47.427Z,14.47
2019-04-06T20:05:31.868Z,16.23
2019-04-06T20:08:06.022Z,16.43
2019-04-06T20:10:44.141Z,16.00
2019-04-06T20:13:15.649Z,16.70
2019-04-06T20:15:50.644Z,19.50
2019-04-06T20:18:26.291Z,17.60
2019-04-06T20:21:06.343Z,20.50
2019-04-06T20:23:38.016Z,18.80
2019-04-06T20:26:07.812Z,18.43
2019-04-06T20:28:44.640Z,18.87
2019-04-06T20:31:15.015Z,20.17
2019-04-06T20:33:52.324Z,20.83
2019-04-06T20:36:30.611Z,19.83
2019-04-06T20:39:02.174Z,19.90
2019-04-06T20:41:35.773Z,20.27
2019-04-06T20:44:06.378Z,19.53
2019-04-06T20:46:36.211Z,18.47
2019-04-06T20:49:10.871Z,18.63
2019-04-06T20:51:41.261Z,18.57
2019-04-06T20:54:15.339Z,19.10
2019-04-06T20:56:56.375Z,17.67
2019-04-06T21:02:19.843Z,17.53
2019-04-06T21:05:05.634Z,18.03
2019-04-06T21:07:35.995Z,18.37
2019-04-06T21:10:14.084Z,19.73
2019-04-06T21:12:47.639Z,18.43
2019-04-06T21:15:21.191Z,19.80
2019-04-06T21:17:53.932Z,19.77
2019-04-06T21:20:26.522Z,21.07
2019-04-06T21:23:13.875Z,20.67
2019-04-06T21:25:48.061Z,19.83
2019-04-06T21:28:24.502Z,19.03
2019-04-06T21:31:04.644Z,19.43
2019-04-06T21:33:34.195Z,18.30
2019-04-06T21:36:07.263Z,19.97
2019-04-06T21:38:41.529Z,20.13
2019-04-06T21:41:24.598Z,19.83
2019-04-06T21:44:00.052Z,19.73
2019-04-06T21:46:32.660Z,22.23
2019-04-06T21:49:11.560Z,19.87
2019-04-06T21:51:47.140Z,21.13
2019-04-06T21:54:21.056Z,20.43
2019-04-06T21:56:50.200Z,20.00
2019-04-06T21:59:23.452Z,19.93
2019-04-06T22:01:55.852Z,19.70
2019-04-06T22:04:31.571Z,21.13
2019-04-06T22:07:06.417Z,20.47
2019-04-06T22:09:42.629Z,20.13
2019-04-06T22:12:08.589Z,21.40
2019-04-06T22:14:39.661Z,21.23
2019-04-06T22:17:12.079Z,19.93
2019-04-06T22:19:41.014Z,20.40
2019-04-06T22:22:16.826Z,20.80
2019-04-06T22:24:48.467Z,21.13
2019-04-06T22:27:19.537Z,20.27
2019-04-06T22:29:49.908Z,19.90
2019-04-06T22:32:20.911Z,20.70
2019-04-06T22:34:52.337Z,20.20
2019-04-06T22:37:22.427Z,18.80
2019-04-06T22:39:55.068Z,19.33
2019-04-06T22:42:23.874Z,20.00
2019-04-06T22:44:55.971Z,19.53
2019-04-06T22:47:31.341Z,20.20
2019-04-06T22:50:02.636Z,19.77
2019-04-06T22:52:33.598Z,18.67
2019-04-06T22:55:04.046Z,19.90
2019-04-06T22:57:41.050Z,18.77
2019-04-06T23:00:16.774Z,19.23
2019-04-06T23:03:07.073Z,18.97
2019-04-06T23:05:42.817Z,19.20
2019-04-06T23:08:14.592Z,18.47
2019-04-06T23:10:47.594Z,19.87
2019-04-06T23:13:17.698Z,19.60
2019-04-06T23:15:51.959Z,20.73
2019-04-06T23:18:25.681Z,18.40
2019-04-06T23:20:54.005Z,19.73
2019-04-06T23:23:24.762Z,19.97
2019-04-06T23:26:05.187Z,18.77
2019-04-06T23:28:36.765Z,21.37
2019-04-06T23:31:11.142Z,18.93
2019-04-06T23:33:41.283Z,18.90
2019-04-06T23:36:13.440Z,17.90
2019-04-06T23:44:26.208Z,19.00
2019-04-06T23:47:00.455Z,19.07
2019-04-06T23:49:30.262Z,18.67
2019-04-06T23:51:59.001Z,18.63
2019-04-06T23:54:28.085Z,19.07
2019-04-06T23:56:59.127Z,18.60
2019-04-06T23:59:29.913Z,18.87
